sensor_id;sensor_type;location;lat;lon;timestamp;P1;durP1;ratioP1;P2;durP2;ratioP2
8927;SDS011;4499;48.304;11.902;2022-07-25T00:01:11;12.90;;;11.60;;
8927;SDS011;4499;48.304;11.902;2022-07-25T00:03:45;12.10;;;10.80;;
8927;SDS011;4499;48.304;11.902;2022-07-25T00:06:13;11.83;;;10.73;;
8927;SDS011;4499;48.304;11.902;2022-07-25T00:08:45;13.67;;;12.30;;
8927;SDS011;4499;48.304;11.902;2022-07-25T00:11:14;12.17;;;11.07;;
8927;SDS011;4499;48.304;11.902;2022-07-25T00:13:43;12.80;;;11.60;;
8927;SDS011;4499;48.304;11.902;2022-07-25T00:16:11;12.63;;;11.40;;
8927;SDS011;4499;48.304;11.902;2022-07-25T00:18:39;12.70;;;11.50;;
8927;SDS011;4499;48.304;11.902;2022-07-25T00:21:08;12.20;;;11.00;;
8927;SDS011;4499;48.304;11.902;2022-07-25T00:23:36;14.20;;;12.13;;
8927;SDS011;4499;48.304;11.902;2022-07-25T00:26:06;13.03;;;11.73;;
8927;SDS011;4499;48.304;11.902;2022-07-25T00:28:34;14.13;;;12.73;;
8927;SDS011;4499;48.304;11.902;2022-07-25T00:31:02;14.77;;;12.57;;
8927;SDS011;4499;48.304;11.902;2022-07-25T00:33:30;13.30;;;12.00;;
8927;SDS011;4499;48.304;11.902;2022-07-25T00:35:59;13.90;;;12.50;;
8927;SDS011;4499;48.304;11.902;2022-07-25T00:38:27;13.60;;;12.20;;
8927;SDS011;4499;48.304;11.902;2022-07-25T00:40:55;14.07;;;12.50;;
8927;SDS011;4499;48.304;11.902;2022-07-25T00:43:25;14.57;;;12.60;;
8927;SDS011;4499;48.304;11.902;2022-07-25T00:45:53;13.37;;;11.83;;
8927;SDS011;4499;48.304;11.902;2022-07-25T00:48:24;13.60;;;12.20;;
8927;SDS011;4499;48.304;11.902;2022-07-25T00:50:53;14.00;;;12.47;;
8927;SDS011;4499;48.304;11.902;2022-07-25T00:53:25;13.83;;;12.43;;
8927;SDS011;4499;48.304;11.902;2022-07-25T00:55:53;13.27;;;11.97;;
8927;SDS011;4499;48.304;11.902;2022-07-25T00:58:22;14.57;;;13.07;;
8927;SDS011;4499;48.304;11.902;2022-07-25T01:00:55;13.33;;;12.00;;
8927;SDS011;4499;48.304;11.902;2022-07-25T01:03:23;14.10;;;12.70;;
8927;SDS011;4499;48.304;11.902;2022-07-25T01:05:52;14.73;;;13.23;;
8927;SDS011;4499;48.304;11.902;2022-07-25T01:08:20;14.60;;;13.10;;
8927;SDS011;4499;48.304;11.902;2022-07-25T01:10:49;14.00;;;12.53;;
8927;SDS011;4499;48.304;11.902;2022-07-25T01:13:20;14.63;;;13.20;;
8927;SDS011;4499;48.304;11.902;2022-07-25T01:15:48;15.27;;;13.77;;
8927;SDS011;4499;48.304;11.902;2022-07-25T01:18:18;15.93;;;14.30;;
8927;SDS011;4499;48.304;11.902;2022-07-25T01:20:47;14.67;;;13.13;;
8927;SDS011;4499;48.304;11.902;2022-07-25T01:23:18;15.37;;;13.77;;
8927;SDS011;4499;48.304;11.902;2022-07-25T01:25:46;15.07;;;13.60;;
8927;SDS011;4499;48.304;11.902;2022-07-25T01:28:14;16.40;;;14.03;;
8927;SDS011;4499;48.304;11.902;2022-07-25T01:30:43;16.33;;;14.63;;
8927;SDS011;4499;48.304;11.902;2022-07-25T01:33:14;15.00;;;13.33;;
8927;SDS011;4499;48.304;11.902;2022-07-25T01:35:43;14.70;;;13.30;;
8927;SDS011;4499;48.304;11.902;2022-07-25T01:38:13;16.90;;;14.50;;
8927;SDS011;4499;48.304;11.902;2022-07-25T01:40:42;15.97;;;14.47;;
8927;SDS011;4499;48.304;11.902;2022-07-25T01:43:11;15.93;;;14.27;;
8927;SDS011;4499;48.304;11.902;2022-07-25T01:45:39;16.00;;;14.40;;
8927;SDS011;4499;48.304;11.902;2022-07-25T01:48:08;15.87;;;14.20;;
8927;SDS011;4499;48.304;11.902;2022-07-25T01:50:37;19.50;;;15.27;;
8927;SDS011;4499;48.304;11.902;2022-07-25T01:53:05;18.17;;;15.13;;
8927;SDS011;4499;48.304;11.902;2022-07-25T01:55:39;17.77;;;15.50;;
8927;SDS011;4499;48.304;11.902;2022-07-25T01:58:07;16.17;;;14.50;;
8927;SDS011;4499;48.304;11.902;2022-07-25T02:00:36;15.77;;;14.17;;
8927;SDS011;4499;48.304;11.902;2022-07-25T02:03:05;17.00;;;14.40;;
8927;SDS011;4499;48.304;11.902;2022-07-25T02:05:51;15.67;;;14.20;;
8927;SDS011;4499;48.304;11.902;2022-07-25T02:08:19;15.63;;;14.07;;
8927;SDS011;4499;48.304;11.902;2022-07-25T02:10:50;15.67;;;13.77;;
8927;SDS011;4499;48.304;11.902;2022-07-25T02:13:18;16.57;;;14.83;;
8927;SDS011;4499;48.304;11.902;2022-07-25T02:15:47;16.93;;;15.33;;
8927;SDS011;4499;48.304;11.902;2022-07-25T02:18:15;17.00;;;15.40;;
8927;SDS011;4499;48.304;11.902;2022-07-25T02:20:43;17.03;;;15.37;;
8927;SDS011;4499;48.304;11.902;2022-07-25T02:23:12;17.73;;;15.83;;
8927;SDS011;4499;48.304;11.902;2022-07-25T02:25:40;17.10;;;15.17;;
8927;SDS011;4499;48.304;11.902;2022-07-25T02:28:10;17.53;;;14.57;;
8927;SDS011;4499;48.304;11.902;2022-07-25T02:30:38;16.53;;;14.93;;
8927;SDS011;4499;48.304;11.902;2022-07-25T02:33:06;17.60;;;15.07;;
8927;SDS011;4499;48.304;11.902;2022-07-25T02:35:35;17.33;;;14.87;;
8927;SDS011;4499;48.304;11.902;2022-07-25T02:38:03;16.60;;;14.87;;
8927;SDS011;4499;48.304;11.902;2022-07-25T02:40:31;16.03;;;14.53;;
8927;SDS011;4499;48.304;11.902;2022-07-25T02:42:59;17.50;;;14.03;;
8927;SDS011;4499;48.304;11.902;2022-07-25T02:45:29;16.80;;;15.10;;
8927;SDS011;4499;48.304;11.902;2022-07-25T02:47:59;16.67;;;14.97;;
8927;SDS011;4499;48.304;11.902;2022-07-25T02:50:27;17.23;;;15.47;;
8927;SDS011;4499;48.304;11.902;2022-07-25T02:52:55;16.97;;;15.23;;
8927;SDS011;4499;48.304;11.902;2022-07-25T02:55:24;18.37;;;16.53;;
8927;SDS011;4499;48.304;11.902;2022-07-25T02:57:52;17.53;;;15.77;;
8927;SDS011;4499;48.304;11.902;2022-07-25T03:00:21;18.97;;;17.03;;
8927;SDS011;4499;48.304;11.902;2022-07-25T03:02:52;17.10;;;15.50;;
8927;SDS011;4499;48.304;11.902;2022-07-25T03:05:20;19.73;;;16.00;;
8927;SDS011;4499;48.304;11.902;2022-07-25T03:07:48;18.00;;;16.23;;
8927;SDS011;4499;48.304;11.902;2022-07-25T03:10:16;18.33;;;16.50;;
8927;SDS011;4499;48.304;11.902;2022-07-25T03:12:45;17.03;;;15.10;;
8927;SDS011;4499;48.304;11.902;2022-07-25T03:15:13;17.23;;;15.50;;
8927;SDS011;4499;48.304;11.902;2022-07-25T03:17:42;17.53;;;15.67;;
8927;SDS011;4499;48.304;11.902;2022-07-25T03:20:11;17.37;;;15.77;;
8927;SDS011;4499;48.304;11.902;2022-07-25T03:22:39;17.67;;;15.87;;
8927;SDS011;4499;48.304;11.902;2022-07-25T03:25:08;18.30;;;16.13;;
8927;SDS011;4499;48.304;11.902;2022-07-25T03:27:46;17.20;;;15.50;;
8927;SDS011;4499;48.304;11.902;2022-07-25T03:30:15;17.13;;;15.50;;
8927;SDS011;4499;48.304;11.902;2022-07-25T03:32:43;18.57;;;16.67;;
8927;SDS011;4499;48.304;11.902;2022-07-25T03:35:13;19.30;;;17.27;;
8927;SDS011;4499;48.304;11.902;2022-07-25T03:37:42;17.60;;;15.67;;
8927;SDS011;4499;48.304;11.902;2022-07-25T03:40:11;17.50;;;15.80;;
8927;SDS011;4499;48.304;11.902;2022-07-25T03:42:41;17.53;;;15.67;;
8927;SDS011;4499;48.304;11.902;2022-07-25T03:45:09;18.27;;;16.47;;
8927;SDS011;4499;48.304;11.902;2022-07-25T03:47:38;17.60;;;15.77;;
8927;SDS011;4499;48.304;11.902;2022-07-25T03:50:06;17.67;;;15.83;;
8927;SDS011;4499;48.304;11.902;2022-07-25T03:52:37;18.63;;;16.63;;
8927;SDS011;4499;48.304;11.902;2022-07-25T03:55:05;18.10;;;15.40;;
8927;SDS011;4499;48.304;11.902;2022-07-25T03:57:34;18.07;;;16.37;;
8927;SDS011;4499;48.304;11.902;2022-07-25T04:00:03;18.50;;;16.13;;
8927;SDS011;4499;48.304;11.902;2022-07-25T04:02:34;17.43;;;15.77;;
8927;SDS011;4499;48.304;11.902;2022-07-25T04:05:03;17.90;;;16.03;;
8927;SDS011;4499;48.304;11.902;2022-07-25T04:07:32;17.07;;;15.20;;
8927;SDS011;4499;48.304;11.902;2022-07-25T04:10:07;18.40;;;16.60;;
8927;SDS011;4499;48.304;11.902;2022-07-25T04:12:37;17.00;;;15.43;;
8927;SDS011;4499;48.304;11.902;2022-07-25T04:15:05;17.73;;;16.10;;
8927;SDS011;4499;48.304;11.902;2022-07-25T04:17:35;17.50;;;15.77;;
8927;SDS011;4499;48.304;11.902;2022-07-25T04:20:05;17.10;;;15.33;;
8927;SDS011;4499;48.304;11.902;2022-07-25T04:22:34;17.97;;;16.23;;
8927;SDS011;4499;48.304;11.902;2022-07-25T04:25:02;17.60;;;15.77;;
8927;SDS011;4499;48.304;11.902;2022-07-25T04:27:35;18.23;;;16.33;;
8927;SDS011;4499;48.304;11.902;2022-07-25T04:30:06;18.03;;;16.33;;
8927;SDS011;4499;48.304;11.902;2022-07-25T04:32:35;17.20;;;15.50;;
8927;SDS011;4499;48.304;11.902;2022-07-25T04:35:04;18.50;;;15.57;;
8927;SDS011;4499;48.304;11.902;2022-07-25T04:37:33;17.50;;;15.70;;
8927;SDS011;4499;48.304;11.902;2022-07-25T04:40:02;17.63;;;16.03;;
8927;SDS011;4499;48.304;11.902;2022-07-25T04:42:33;18.33;;;15.83;;
8927;SDS011;4499;48.304;11.902;2022-07-25T04:45:01;18.50;;;16.63;;
8927;SDS011;4499;48.304;11.902;2022-07-25T04:47:30;18.27;;;16.40;;
8927;SDS011;4499;48.304;11.902;2022-07-25T04:49:59;18.17;;;16.27;;
8927;SDS011;4499;48.304;11.902;2022-07-25T04:52:27;17.73;;;16.13;;
8927;SDS011;4499;48.304;11.902;2022-07-25T04:54:55;18.63;;;16.63;;
8927;SDS011;4499;48.304;11.902;2022-07-25T04:57:23;16.40;;;14.73;;
8927;SDS011;4499;48.304;11.902;2022-07-25T04:59:56;18.07;;;16.30;;
8927;SDS011;4499;48.304;11.902;2022-07-25T05:02:25;18.33;;;16.43;;
8927;SDS011;4499;48.304;11.902;2022-07-25T05:04:53;18.03;;;16.30;;
8927;SDS011;4499;48.304;11.902;2022-07-25T05:07:22;17.70;;;15.87;;
8927;SDS011;4499;48.304;11.902;2022-07-25T05:09:51;17.47;;;15.80;;
8927;SDS011;4499;48.304;11.902;2022-07-25T05:12:22;17.23;;;15.53;;
8927;SDS011;4499;48.304;11.902;2022-07-25T05:14:50;18.07;;;16.37;;
8927;SDS011;4499;48.304;11.902;2022-07-25T05:17:20;18.47;;;16.60;;
8927;SDS011;4499;48.304;11.902;2022-07-25T05:19:48;17.53;;;15.83;;
8927;SDS011;4499;48.304;11.902;2022-07-25T05:22:17;17.13;;;15.53;;
8927;SDS011;4499;48.304;11.902;2022-07-25T05:24:53;17.33;;;15.40;;
8927;SDS011;4499;48.304;11.902;2022-07-25T05:27:22;17.00;;;15.33;;
8927;SDS011;4499;48.304;11.902;2022-07-25T05:29:56;16.07;;;14.57;;
8927;SDS011;4499;48.304;11.902;2022-07-25T05:32:25;17.30;;;15.67;;
8927;SDS011;4499;48.304;11.902;2022-07-25T05:34:54;16.20;;;14.50;;
8927;SDS011;4499;48.304;11.902;2022-07-25T05:37:22;16.93;;;15.33;;
8927;SDS011;4499;48.304;11.902;2022-07-25T05:39:50;16.80;;;15.00;;
8927;SDS011;4499;48.304;11.902;2022-07-25T05:42:18;15.37;;;13.93;;
8927;SDS011;4499;48.304;11.902;2022-07-25T05:44:46;16.23;;;14.53;;
8927;SDS011;4499;48.304;11.902;2022-07-25T05:47:14;16.33;;;14.60;;
8927;SDS011;4499;48.304;11.902;2022-07-25T05:49:44;16.87;;;15.17;;
8927;SDS011;4499;48.304;11.902;2022-07-25T05:52:12;15.73;;;14.13;;
8927;SDS011;4499;48.304;11.902;2022-07-25T05:54:40;15.90;;;14.10;;
8927;SDS011;4499;48.304;11.902;2022-07-25T05:57:09;15.50;;;13.90;;
8927;SDS011;4499;48.304;11.902;2022-07-25T05:59:39;14.57;;;13.17;;
8927;SDS011;4499;48.304;11.902;2022-07-25T06:02:08;14.40;;;13.10;;
8927;SDS011;4499;48.304;11.902;2022-07-25T06:04:39;17.43;;;13.60;;
8927;SDS011;4499;48.304;11.902;2022-07-25T06:07:08;13.17;;;11.80;;
8927;SDS011;4499;48.304;11.902;2022-07-25T06:09:42;12.40;;;11.20;;
8927;SDS011;4499;48.304;11.902;2022-07-25T06:12:10;12.07;;;10.97;;
8927;SDS011;4499;48.304;11.902;2022-07-25T06:14:39;12.73;;;11.43;;
8927;SDS011;4499;48.304;11.902;2022-07-25T06:17:08;12.97;;;11.57;;
8927;SDS011;4499;48.304;11.902;2022-07-25T06:19:36;11.23;;;10.23;;
8927;SDS011;4499;48.304;11.902;2022-07-25T06:22:04;11.93;;;10.83;;
8927;SDS011;4499;48.304;11.902;2022-07-25T06:24:35;11.40;;;10.30;;
8927;SDS011;4499;48.304;11.902;2022-07-25T06:27:03;11.50;;;10.15;;
8927;SDS011;4499;48.304;11.902;2022-07-25T06:29:33;12.13;;;10.90;;
8927;SDS011;4499;48.304;11.902;2022-07-25T06:32:01;11.57;;;10.30;;
8927;SDS011;4499;48.304;11.902;2022-07-25T06:34:29;11.88;;;10.25;;
8927;SDS011;4499;48.304;11.902;2022-07-25T06:36:58;11.05;;;9.00;;
8927;SDS011;4499;48.304;11.902;2022-07-25T06:39:28;10.82;;;8.85;;
8927;SDS011;4499;48.304;11.902;2022-07-25T06:41:58;9.90;;;8.90;;
8927;SDS011;4499;48.304;11.902;2022-07-25T06:44:30;11.90;;;9.30;;
8927;SDS011;4499;48.304;11.902;2022-07-25T06:46:59;10.05;;;9.10;;
8927;SDS011;4499;48.304;11.902;2022-07-25T06:49:28;10.85;;;9.32;;
8927;SDS011;4499;48.304;11.902;2022-07-25T06:51:56;10.57;;;9.43;;
8927;SDS011;4499;48.304;11.902;2022-07-25T06:54:24;10.50;;;9.15;;
8927;SDS011;4499;48.304;11.902;2022-07-25T06:56:52;10.43;;;9.23;;
8927;SDS011;4499;48.304;11.902;2022-07-25T06:59:22;10.20;;;9.30;;
8927;SDS011;4499;48.304;11.902;2022-07-25T07:01:50;11.02;;;8.95;;
8927;SDS011;4499;48.304;11.902;2022-07-25T07:04:18;10.43;;;9.38;;
8927;SDS011;4499;48.304;11.902;2022-07-25T07:06:47;10.82;;;9.73;;
8927;SDS011;4499;48.304;11.902;2022-07-25T07:09:15;9.82;;;8.82;;
8927;SDS011;4499;48.304;11.902;2022-07-25T07:11:44;10.80;;;8.73;;
8927;SDS011;4499;48.304;11.902;2022-07-25T07:14:12;9.60;;;8.65;;
8927;SDS011;4499;48.304;11.902;2022-07-25T07:16:42;9.73;;;8.82;;
8927;SDS011;4499;48.304;11.902;2022-07-25T07:19:10;9.75;;;8.90;;
8927;SDS011;4499;48.304;11.902;2022-07-25T07:21:39;11.23;;;9.60;;
8927;SDS011;4499;48.304;11.902;2022-07-25T07:24:08;9.57;;;8.68;;
8927;SDS011;4499;48.304;11.902;2022-07-25T07:26:49;9.48;;;8.05;;
8927;SDS011;4499;48.304;11.902;2022-07-25T07:29:18;9.25;;;8.32;;
8927;SDS011;4499;48.304;11.902;2022-07-25T07:31:48;10.85;;;8.57;;
8927;SDS011;4499;48.304;11.902;2022-07-25T07:34:17;10.02;;;8.73;;
8927;SDS011;4499;48.304;11.902;2022-07-25T07:36:47;10.10;;;7.95;;
8927;SDS011;4499;48.304;11.902;2022-07-25T07:39:17;9.70;;;8.27;;
8927;SDS011;4499;48.304;11.902;2022-07-25T07:41:48;8.70;;;8.00;;
8927;SDS011;4499;48.304;11.902;2022-07-25T07:44:16;9.55;;;8.43;;
8927;SDS011;4499;48.304;11.902;2022-07-25T07:46:45;9.90;;;8.10;;
8927;SDS011;4499;48.304;11.902;2022-07-25T07:49:18;8.80;;;8.07;;
8927;SDS011;4499;48.304;11.902;2022-07-25T07:51:47;8.52;;;7.60;;
8927;SDS011;4499;48.304;11.902;2022-07-25T07:54:16;8.40;;;7.50;;
8927;SDS011;4499;48.304;11.902;2022-07-25T07:57:03;9.73;;;8.20;;
8927;SDS011;4499;48.304;11.902;2022-07-25T07:59:32;8.77;;;7.90;;
8927;SDS011;4499;48.304;11.902;2022-07-25T08:02:00;10.05;;;8.32;;
8927;SDS011;4499;48.304;11.902;2022-07-25T08:04:32;9.30;;;8.43;;
8927;SDS011;4499;48.304;11.902;2022-07-25T08:07:03;9.27;;;8.20;;
8927;SDS011;4499;48.304;11.902;2022-07-25T08:09:32;9.10;;;8.30;;
8927;SDS011;4499;48.304;11.902;2022-07-25T08:12:00;9.30;;;8.40;;
8927;SDS011;4499;48.304;11.902;2022-07-25T08:14:28;9.13;;;8.18;;
8927;SDS011;4499;48.304;11.902;2022-07-25T08:16:57;8.85;;;8.05;;
8927;SDS011;4499;48.304;11.902;2022-07-25T08:19:25;9.88;;;8.32;;
8927;SDS011;4499;48.304;11.902;2022-07-25T08:21:58;10.10;;;8.02;;
8927;SDS011;4499;48.304;11.902;2022-07-25T08:24:26;9.55;;;7.72;;
8927;SDS011;4499;48.304;11.902;2022-07-25T08:26:54;8.85;;;8.05;;
8927;SDS011;4499;48.304;11.902;2022-07-25T08:29:22;9.63;;;8.55;;
8927;SDS011;4499;48.304;11.902;2022-07-25T08:31:53;8.82;;;8.00;;
8927;SDS011;4499;48.304;11.902;2022-07-25T08:34:24;11.13;;;8.52;;
8927;SDS011;4499;48.304;11.902;2022-07-25T08:36:52;10.70;;;7.95;;
8927;SDS011;4499;48.304;11.902;2022-07-25T08:39:22;9.30;;;8.30;;
8927;SDS011;4499;48.304;11.902;2022-07-25T08:41:53;8.93;;;8.02;;
8927;SDS011;4499;48.304;11.902;2022-07-25T08:44:22;12.80;;;8.20;;
8927;SDS011;4499;48.304;11.902;2022-07-25T08:46:58;8.48;;;7.68;;
8927;SDS011;4499;48.304;11.902;2022-07-25T08:49:26;13.15;;;8.35;;
8927;SDS011;4499;48.304;11.902;2022-07-25T08:51:55;9.93;;;8.10;;
8927;SDS011;4499;48.304;11.902;2022-07-25T08:54:25;9.95;;;8.20;;
8927;SDS011;4499;48.304;11.902;2022-07-25T08:56:54;8.27;;;7.45;;
8927;SDS011;4499;48.304;11.902;2022-07-25T08:59:22;8.68;;;7.78;;
8927;SDS011;4499;48.304;11.902;2022-07-25T09:01:51;8.48;;;7.68;;
8927;SDS011;4499;48.304;11.902;2022-07-25T09:04:21;9.45;;;8.00;;
8927;SDS011;4499;48.304;11.902;2022-07-25T09:06:50;9.13;;;8.05;;
8927;SDS011;4499;48.304;11.902;2022-07-25T09:09:18;10.95;;;7.95;;
8927;SDS011;4499;48.304;11.902;2022-07-25T09:11:57;8.35;;;7.43;;
8927;SDS011;4499;48.304;11.902;2022-07-25T09:14:25;8.63;;;7.82;;
8927;SDS011;4499;48.304;11.902;2022-07-25T09:16:55;11.82;;;8.38;;
8927;SDS011;4499;48.304;11.902;2022-07-25T09:19:24;10.52;;;8.38;;
8927;SDS011;4499;48.304;11.902;2022-07-25T09:21:59;9.23;;;8.27;;
8927;SDS011;4499;48.304;11.902;2022-07-25T09:24:29;8.32;;;7.47;;
8927;SDS011;4499;48.304;11.902;2022-07-25T09:26:59;8.82;;;7.95;;
8927;SDS011;4499;48.304;11.902;2022-07-25T09:29:37;9.60;;;8.70;;
8927;SDS011;4499;48.304;11.902;2022-07-25T09:32:14;8.32;;;7.55;;
8927;SDS011;4499;48.304;11.902;2022-07-25T09:34:45;10.70;;;8.88;;
8927;SDS011;4499;48.304;11.902;2022-07-25T09:37:15;10.68;;;8.70;;
8927;SDS011;4499;48.304;11.902;2022-07-25T09:39:47;9.85;;;8.07;;
8927;SDS011;4499;48.304;11.902;2022-07-25T09:42:22;9.18;;;8.13;;
8927;SDS011;4499;48.304;11.902;2022-07-25T09:45:03;8.95;;;8.02;;
8927;SDS011;4499;48.304;11.902;2022-07-25T09:47:34;9.32;;;8.38;;
8927;SDS011;4499;48.304;11.902;2022-07-25T09:50:04;8.60;;;7.80;;
8927;SDS011;4499;48.304;11.902;2022-07-25T09:52:33;8.75;;;7.85;;
8927;SDS011;4499;48.304;11.902;2022-07-25T09:55:03;8.95;;;8.05;;
8927;SDS011;4499;48.304;11.902;2022-07-25T09:57:36;8.60;;;7.80;;
8927;SDS011;4499;48.304;11.902;2022-07-25T10:00:05;9.60;;;8.05;;
8927;SDS011;4499;48.304;11.902;2022-07-25T10:02:40;9.38;;;8.45;;
8927;SDS011;4499;48.304;11.902;2022-07-25T10:05:15;9.82;;;7.90;;
8927;SDS011;4499;48.304;11.902;2022-07-25T10:07:50;10.13;;;7.70;;
8927;SDS011;4499;48.304;11.902;2022-07-25T10:10:23;9.68;;;7.55;;
8927;SDS011;4499;48.304;11.902;2022-07-25T10:13:01;10.82;;;8.50;;
8927;SDS011;4499;48.304;11.902;2022-07-25T10:15:40;9.02;;;8.23;;
8927;SDS011;4499;48.304;11.902;2022-07-25T10:18:13;9.23;;;7.88;;
8927;SDS011;4499;48.304;11.902;2022-07-25T10:20:43;8.88;;;7.78;;
8927;SDS011;4499;48.304;11.902;2022-07-25T10:23:16;8.75;;;7.85;;
8927;SDS011;4499;48.304;11.902;2022-07-25T10:25:46;9.82;;;7.88;;
8927;SDS011;4499;48.304;11.902;2022-07-25T10:28:35;9.85;;;7.93;;
8927;SDS011;4499;48.304;11.902;2022-07-25T10:31:15;12.63;;;7.85;;
8927;SDS011;4499;48.304;11.902;2022-07-25T10:33:54;8.57;;;7.78;;
8927;SDS011;4499;48.304;11.902;2022-07-25T10:36:24;7.95;;;7.18;;
8927;SDS011;4499;48.304;11.902;2022-07-25T10:38:59;8.00;;;7.20;;
8927;SDS011;4499;48.304;11.902;2022-07-25T10:41:28;8.50;;;7.70;;
8927;SDS011;4499;48.304;11.902;2022-07-25T10:44:00;8.60;;;7.25;;
8927;SDS011;4499;48.304;11.902;2022-07-25T10:46:33;10.45;;;6.95;;
8927;SDS011;4499;48.304;11.902;2022-07-25T10:49:03;7.88;;;7.07;;
8927;SDS011;4499;48.304;11.902;2022-07-25T10:51:33;7.80;;;6.90;;
8927;SDS011;4499;48.304;11.902;2022-07-25T10:54:11;8.43;;;6.53;;
8927;SDS011;4499;48.304;11.902;2022-07-25T10:56:49;7.30;;;6.35;;
8927;SDS011;4499;48.304;11.902;2022-07-25T10:59:27;7.38;;;6.65;;
8927;SDS011;4499;48.304;11.902;2022-07-25T11:01:58;10.05;;;6.88;;
8927;SDS011;4499;48.304;11.902;2022-07-25T11:04:27;7.60;;;6.80;;
8927;SDS011;4499;48.304;11.902;2022-07-25T11:06:56;6.75;;;6.15;;
8927;SDS011;4499;48.304;11.902;2022-07-25T11:09:33;7.47;;;6.40;;
8927;SDS011;4499;48.304;11.902;2022-07-25T11:12:02;7.38;;;6.18;;
8927;SDS011;4499;48.304;11.902;2022-07-25T11:14:33;6.75;;;6.13;;
8927;SDS011;4499;48.304;11.902;2022-07-25T11:17:11;6.75;;;6.15;;
8927;SDS011;4499;48.304;11.902;2022-07-25T11:19:41;6.97;;;6.07;;
8927;SDS011;4499;48.304;11.902;2022-07-25T11:22:11;6.47;;;5.88;;
8927;SDS011;4499;48.304;11.902;2022-07-25T11:24:40;6.72;;;6.15;;
8927;SDS011;4499;48.304;11.902;2022-07-25T11:27:09;10.82;;;6.50;;
8927;SDS011;4499;48.304;11.902;2022-07-25T11:29:41;6.07;;;5.57;;
8927;SDS011;4499;48.304;11.902;2022-07-25T11:32:10;7.15;;;6.22;;
8927;SDS011;4499;48.304;11.902;2022-07-25T11:34:40;10.15;;;5.88;;
8927;SDS011;4499;48.304;11.902;2022-07-25T11:37:10;9.40;;;6.60;;
8927;SDS011;4499;48.304;11.902;2022-07-25T11:39:41;8.98;;;6.40;;
8927;SDS011;4499;48.304;11.902;2022-07-25T11:42:12;6.78;;;6.18;;
8927;SDS011;4499;48.304;11.902;2022-07-25T11:44:44;7.45;;;6.72;;
8927;SDS011;4499;48.304;11.902;2022-07-25T11:47:21;7.80;;;6.38;;
8927;SDS011;4499;48.304;11.902;2022-07-25T11:49:51;7.28;;;6.38;;
8927;SDS011;4499;48.304;11.902;2022-07-25T11:52:30;7.70;;;6.38;;
8927;SDS011;4499;48.304;11.902;2022-07-25T11:55:00;9.73;;;6.60;;
8927;SDS011;4499;48.304;11.902;2022-07-25T11:57:32;7.80;;;5.65;;
8927;SDS011;4499;48.304;11.902;2022-07-25T12:00:04;7.57;;;5.68;;
8927;SDS011;4499;48.304;11.902;2022-07-25T12:02:35;7.18;;;5.40;;
8927;SDS011;4499;48.304;11.902;2022-07-25T12:05:04;6.47;;;5.50;;
8927;SDS011;4499;48.304;11.902;2022-07-25T12:07:38;7.22;;;5.05;;
8927;SDS011;4499;48.304;11.902;2022-07-25T12:10:11;6.97;;;5.60;;
8927;SDS011;4499;48.304;11.902;2022-07-25T12:12:43;5.90;;;5.40;;
8927;SDS011;4499;48.304;11.902;2022-07-25T12:15:19;5.93;;;5.32;;
8927;SDS011;4499;48.304;11.902;2022-07-25T12:17:51;6.55;;;5.25;;
8927;SDS011;4499;48.304;11.902;2022-07-25T12:20:22;6.95;;;5.38;;
8927;SDS011;4499;48.304;11.902;2022-07-25T12:22:56;7.82;;;5.20;;
8927;SDS011;4499;48.304;11.902;2022-07-25T12:25:27;6.90;;;5.20;;
8927;SDS011;4499;48.304;11.902;2022-07-25T12:27:56;6.47;;;4.90;;
8927;SDS011;4499;48.304;11.902;2022-07-25T12:30:27;7.22;;;5.85;;
8927;SDS011;4499;48.304;11.902;2022-07-25T12:32:57;6.32;;;5.05;;
8927;SDS011;4499;48.304;11.902;2022-07-25T12:35:26;9.50;;;5.15;;
8927;SDS011;4499;48.304;11.902;2022-07-25T12:37:55;5.38;;;4.88;;
8927;SDS011;4499;48.304;11.902;2022-07-25T12:40:27;8.82;;;5.40;;
8927;SDS011;4499;48.304;11.902;2022-07-25T12:42:55;6.35;;;4.95;;
8927;SDS011;4499;48.304;11.902;2022-07-25T12:45:25;5.15;;;4.65;;
8927;SDS011;4499;48.304;11.902;2022-07-25T12:47:55;7.78;;;5.20;;
8927;SDS011;4499;48.304;11.902;2022-07-25T12:50:23;6.07;;;5.20;;
8927;SDS011;4499;48.304;11.902;2022-07-25T12:52:52;6.80;;;4.57;;
8927;SDS011;4499;48.304;11.902;2022-07-25T12:55:22;6.57;;;5.10;;
8927;SDS011;4499;48.304;11.902;2022-07-25T12:57:50;7.70;;;5.20;;
8927;SDS011;4499;48.304;11.902;2022-07-25T13:00:19;6.03;;;5.43;;
8927;SDS011;4499;48.304;11.902;2022-07-25T13:02:51;7.30;;;5.22;;
8927;SDS011;4499;48.304;11.902;2022-07-25T13:05:21;8.00;;;5.20;;
8927;SDS011;4499;48.304;11.902;2022-07-25T13:07:51;6.30;;;5.13;;
8927;SDS011;4499;48.304;11.902;2022-07-25T13:10:20;8.00;;;5.57;;
8927;SDS011;4499;48.304;11.902;2022-07-25T13:12:48;5.68;;;5.07;;
8927;SDS011;4499;48.304;11.902;2022-07-25T13:15:18;6.00;;;5.00;;
8927;SDS011;4499;48.304;11.902;2022-07-25T13:17:50;7.32;;;5.47;;
8927;SDS011;4499;48.304;11.902;2022-07-25T13:20:18;6.47;;;5.30;;
8927;SDS011;4499;48.304;11.902;2022-07-25T13:22:47;5.63;;;5.00;;
8927;SDS011;4499;48.304;11.902;2022-07-25T13:25:15;6.63;;;5.32;;
8927;SDS011;4499;48.304;11.902;2022-07-25T13:27:43;6.43;;;5.38;;
8927;SDS011;4499;48.304;11.902;2022-07-25T13:30:13;6.13;;;5.00;;
8927;SDS011;4499;48.304;11.902;2022-07-25T13:32:42;6.93;;;5.47;;
8927;SDS011;4499;48.304;11.902;2022-07-25T13:35:12;7.22;;;5.50;;
8927;SDS011;4499;48.304;11.902;2022-07-25T13:37:45;8.00;;;5.40;;
8927;SDS011;4499;48.304;11.902;2022-07-25T13:40:14;7.53;;;5.10;;
8927;SDS011;4499;48.304;11.902;2022-07-25T13:42:42;6.78;;;5.20;;
8927;SDS011;4499;48.304;11.902;2022-07-25T13:45:10;5.90;;;5.30;;
8927;SDS011;4499;48.304;11.902;2022-07-25T13:47:39;6.55;;;5.40;;
8927;SDS011;4499;48.304;11.902;2022-07-25T13:50:08;8.45;;;5.10;;
8927;SDS011;4499;48.304;11.902;2022-07-25T13:52:38;6.60;;;5.30;;
8927;SDS011;4499;48.304;11.902;2022-07-25T13:55:07;7.00;;;5.38;;
8927;SDS011;4499;48.304;11.902;2022-07-25T13:57:37;6.22;;;5.63;;
8927;SDS011;4499;48.304;11.902;2022-07-25T14:00:07;10.77;;;5.55;;
8927;SDS011;4499;48.304;11.902;2022-07-25T14:02:37;8.70;;;5.13;;
8927;SDS011;4499;48.304;11.902;2022-07-25T14:05:06;5.85;;;5.22;;
8927;SDS011;4499;48.304;11.902;2022-07-25T14:07:36;7.93;;;5.45;;
8927;SDS011;4499;48.304;11.902;2022-07-25T14:10:06;9.32;;;5.38;;
8927;SDS011;4499;48.304;11.902;2022-07-25T14:12:36;6.13;;;5.53;;
8927;SDS011;4499;48.304;11.902;2022-07-25T14:15:05;7.03;;;5.35;;
8927;SDS011;4499;48.304;11.902;2022-07-25T14:17:34;8.73;;;5.50;;
8927;SDS011;4499;48.304;11.902;2022-07-25T14:20:04;8.52;;;5.65;;
8927;SDS011;4499;48.304;11.902;2022-07-25T14:22:33;8.75;;;5.40;;
8927;SDS011;4499;48.304;11.902;2022-07-25T14:25:02;7.63;;;5.72;;
8927;SDS011;4499;48.304;11.902;2022-07-25T14:27:33;8.40;;;5.03;;
8927;SDS011;4499;48.304;11.902;2022-07-25T14:30:02;8.02;;;5.57;;
8927;SDS011;4499;48.304;11.902;2022-07-25T14:32:31;6.35;;;5.35;;
8927;SDS011;4499;48.304;11.902;2022-07-25T14:35:00;5.82;;;4.72;;
8927;SDS011;4499;48.304;11.902;2022-07-25T14:37:28;12.10;;;5.45;;
8927;SDS011;4499;48.304;11.902;2022-07-25T14:39:57;7.53;;;4.97;;
8927;SDS011;4499;48.304;11.902;2022-07-25T14:42:26;6.57;;;5.18;;
8927;SDS011;4499;48.304;11.902;2022-07-25T14:44:56;7.43;;;4.85;;
8927;SDS011;4499;48.304;11.902;2022-07-25T14:47:24;5.97;;;5.00;;
8927;SDS011;4499;48.304;11.902;2022-07-25T14:49:53;6.55;;;3.92;;
8927;SDS011;4499;48.304;11.902;2022-07-25T14:52:21;4.07;;;3.78;;
8927;SDS011;4499;48.304;11.902;2022-07-25T14:54:50;4.72;;;3.70;;
8927;SDS011;4499;48.304;11.902;2022-07-25T14:57:18;4.90;;;4.07;;
8927;SDS011;4499;48.304;11.902;2022-07-25T14:59:46;7.82;;;4.30;;
8927;SDS011;4499;48.304;11.902;2022-07-25T15:02:16;4.78;;;3.63;;
8927;SDS011;4499;48.304;11.902;2022-07-25T15:04:45;4.93;;;3.90;;